sensor_id;sensor_type;location;lat;lon;timestamp;P1;durP1;ratioP1;P2;durP2;ratioP2
41687;SDS011;27371;42.686;23.362;2023-09-30T00:03:32;18.05;;;6.70;;
41687;SDS011;27371;42.686;23.362;2023-09-30T00:05:59;15.20;;;6.10;;
41687;SDS011;27371;42.686;23.362;2023-09-30T00:08:24;16.15;;;6.70;;
41687;SDS011;27371;42.686;23.362;2023-09-30T00:10:50;13.63;;;6.75;;
41687;SDS011;27371;42.686;23.362;2023-09-30T00:13:18;21.48;;;6.57;;
41687;SDS011;27371;42.686;23.362;2023-09-30T00:15:43;17.88;;;6.65;;
41687;SDS011;27371;42.686;23.362;2023-09-30T00:18:08;18.35;;;6.32;;
41687;SDS011;27371;42.686;23.362;2023-09-30T00:20:34;15.65;;;6.57;;
41687;SDS011;27371;42.686;23.362;2023-09-30T00:22:59;15.77;;;6.50;;
41687;SDS011;27371;42.686;23.362;2023-09-30T00:25:25;12.00;;;6.35;;
41687;SDS011;27371;42.686;23.362;2023-09-30T00:27:50;18.27;;;6.35;;
41687;SDS011;27371;42.686;23.362;2023-09-30T00:30:16;13.05;;;6.20;;
41687;SDS011;27371;42.686;23.362;2023-09-30T00:32:42;16.25;;;7.30;;
41687;SDS011;27371;42.686;23.362;2023-09-30T00:35:07;14.73;;;5.75;;
41687;SDS011;27371;42.686;23.362;2023-09-30T00:37:39;11.65;;;6.10;;
41687;SDS011;27371;42.686;23.362;2023-09-30T00:40:06;12.13;;;5.97;;
41687;SDS011;27371;42.686;23.362;2023-09-30T00:42:32;15.27;;;7.07;;
41687;SDS011;27371;42.686;23.362;2023-09-30T00:44:57;10.93;;;6.00;;
41687;SDS011;27371;42.686;23.362;2023-09-30T00:47:23;15.63;;;6.97;;
41687;SDS011;27371;42.686;23.362;2023-09-30T00:49:52;11.15;;;6.38;;
41687;SDS011;27371;42.686;23.362;2023-09-30T00:52:18;14.25;;;5.95;;
41687;SDS011;27371;42.686;23.362;2023-09-30T00:54:44;17.95;;;5.85;;
41687;SDS011;27371;42.686;23.362;2023-09-30T00:57:12;18.40;;;5.70;;
41687;SDS011;27371;42.686;23.362;2023-09-30T00:59:38;14.85;;;5.72;;
41687;SDS011;27371;42.686;23.362;2023-09-30T01:02:05;12.90;;;6.10;;
41687;SDS011;27371;42.686;23.362;2023-09-30T01:04:31;16.73;;;6.95;;
41687;SDS011;27371;42.686;23.362;2023-09-30T01:06:57;12.18;;;5.40;;
41687;SDS011;27371;42.686;23.362;2023-09-30T01:09:23;15.32;;;6.00;;
41687;SDS011;27371;42.686;23.362;2023-09-30T01:11:49;13.35;;;5.85;;
41687;SDS011;27371;42.686;23.362;2023-09-30T01:17:09;13.32;;;6.15;;
41687;SDS011;27371;42.686;23.362;2023-09-30T01:19:38;13.38;;;5.90;;
41687;SDS011;27371;42.686;23.362;2023-09-30T01:22:03;10.98;;;5.50;;
41687;SDS011;27371;42.686;23.362;2023-09-30T01:24:29;12.38;;;5.97;;
41687;SDS011;27371;42.686;23.362;2023-09-30T01:26:55;14.52;;;6.45;;
41687;SDS011;27371;42.686;23.362;2023-09-30T01:29:21;11.35;;;5.55;;
41687;SDS011;27371;42.686;23.362;2023-09-30T01:31:47;10.32;;;5.75;;
41687;SDS011;27371;42.686;23.362;2023-09-30T01:34:14;13.88;;;5.57;;
41687;SDS011;27371;42.686;23.362;2023-09-30T01:36:42;10.77;;;5.03;;
41687;SDS011;27371;42.686;23.362;2023-09-30T01:39:09;11.25;;;5.05;;
41687;SDS011;27371;42.686;23.362;2023-09-30T01:41:36;14.43;;;5.35;;
41687;SDS011;27371;42.686;23.362;2023-09-30T01:44:02;8.18;;;5.20;;
41687;SDS011;27371;42.686;23.362;2023-09-30T01:46:27;13.32;;;5.05;;
41687;SDS011;27371;42.686;23.362;2023-09-30T01:48:53;13.40;;;4.78;;
41687;SDS011;27371;42.686;23.362;2023-09-30T01:51:18;10.25;;;4.72;;
41687;SDS011;27371;42.686;23.362;2023-09-30T01:53:43;9.73;;;5.28;;
41687;SDS011;27371;42.686;23.362;2023-09-30T01:56:09;17.15;;;5.65;;
41687;SDS011;27371;42.686;23.362;2023-09-30T01:58:34;11.45;;;5.15;;
41687;SDS011;27371;42.686;23.362;2023-09-30T02:01:03;10.85;;;5.53;;
41687;SDS011;27371;42.686;23.362;2023-09-30T02:03:29;12.40;;;5.55;;
41687;SDS011;27371;42.686;23.362;2023-09-30T02:05:55;12.98;;;5.03;;
41687;SDS011;27371;42.686;23.362;2023-09-30T02:08:21;16.80;;;5.57;;
41687;SDS011;27371;42.686;23.362;2023-09-30T02:10:47;11.05;;;5.38;;
41687;SDS011;27371;42.686;23.362;2023-09-30T02:13:13;11.38;;;4.95;;
41687;SDS011;27371;42.686;23.362;2023-09-30T02:15:42;10.73;;;5.43;;
41687;SDS011;27371;42.686;23.362;2023-09-30T02:18:07;11.13;;;5.55;;
41687;SDS011;27371;42.686;23.362;2023-09-30T02:20:33;12.48;;;4.93;;
41687;SDS011;27371;42.686;23.362;2023-09-30T02:22:59;13.00;;;4.63;;
41687;SDS011;27371;42.686;23.362;2023-09-30T02:25:24;9.23;;;5.05;;
41687;SDS011;27371;42.686;23.362;2023-09-30T02:27:50;10.05;;;5.13;;
41687;SDS011;27371;42.686;23.362;2023-09-30T02:30:16;12.27;;;5.10;;
41687;SDS011;27371;42.686;23.362;2023-09-30T02:32:42;10.65;;;4.13;;
41687;SDS011;27371;42.686;23.362;2023-09-30T02:35:11;15.10;;;5.05;;
41687;SDS011;27371;42.686;23.362;2023-09-30T02:37:36;10.25;;;4.80;;
41687;SDS011;27371;42.686;23.362;2023-09-30T02:40:03;7.75;;;4.32;;
41687;SDS011;27371;42.686;23.362;2023-09-30T02:42:37;7.13;;;4.63;;
41687;SDS011;27371;42.686;23.362;2023-09-30T02:45:04;12.93;;;4.88;;
41687;SDS011;27371;42.686;23.362;2023-09-30T02:47:31;13.18;;;4.45;;
41687;SDS011;27371;42.686;23.362;2023-09-30T02:49:57;8.32;;;4.95;;
41687;SDS011;27371;42.686;23.362;2023-09-30T02:52:23;8.20;;;4.25;;
41687;SDS011;27371;42.686;23.362;2023-09-30T02:54:49;12.00;;;4.75;;
41687;SDS011;27371;42.686;23.362;2023-09-30T02:57:14;12.50;;;5.30;;
41687;SDS011;27371;42.686;23.362;2023-09-30T02:59:40;14.25;;;4.82;;
41687;SDS011;27371;42.686;23.362;2023-09-30T03:02:06;7.85;;;5.00;;
41687;SDS011;27371;42.686;23.362;2023-09-30T03:04:32;11.15;;;4.63;;
41687;SDS011;27371;42.686;23.362;2023-09-30T03:06:57;13.07;;;5.15;;
41687;SDS011;27371;42.686;23.362;2023-09-30T03:09:23;7.63;;;4.78;;
41687;SDS011;27371;42.686;23.362;2023-09-30T03:11:48;6.55;;;4.32;;
41687;SDS011;27371;42.686;23.362;2023-09-30T03:14:14;9.73;;;4.57;;
41687;SDS011;27371;42.686;23.362;2023-09-30T03:16:40;8.40;;;4.70;;
41687;SDS011;27371;42.686;23.362;2023-09-30T03:19:06;9.90;;;4.65;;
41687;SDS011;27371;42.686;23.362;2023-09-30T03:21:33;16.30;;;5.15;;
41687;SDS011;27371;42.686;23.362;2023-09-30T03:24:00;10.43;;;4.72;;
41687;SDS011;27371;42.686;23.362;2023-09-30T03:26:29;12.75;;;4.93;;
41687;SDS011;27371;42.686;23.362;2023-09-30T03:28:55;18.25;;;5.00;;
41687;SDS011;27371;42.686;23.362;2023-09-30T03:31:21;10.73;;;5.22;;
41687;SDS011;27371;42.686;23.362;2023-09-30T03:33:47;10.00;;;4.22;;
41687;SDS011;27371;42.686;23.362;2023-09-30T03:36:19;10.15;;;4.80;;
41687;SDS011;27371;42.686;23.362;2023-09-30T03:38:45;9.10;;;4.53;;
41687;SDS011;27371;42.686;23.362;2023-09-30T03:41:10;10.18;;;5.05;;
41687;SDS011;27371;42.686;23.362;2023-09-30T03:43:38;11.25;;;5.47;;
41687;SDS011;27371;42.686;23.362;2023-09-30T03:46:06;8.43;;;5.25;;
41687;SDS011;27371;42.686;23.362;2023-09-30T03:48:32;12.88;;;4.70;;
41687;SDS011;27371;42.686;23.362;2023-09-30T03:53:46;10.10;;;5.13;;
41687;SDS011;27371;42.686;23.362;2023-09-30T03:56:12;10.45;;;4.57;;
41687;SDS011;27371;42.686;23.362;2023-09-30T03:58:41;11.57;;;5.40;;
41687;SDS011;27371;42.686;23.362;2023-09-30T04:01:08;9.82;;;5.60;;
41687;SDS011;27371;42.686;23.362;2023-09-30T04:03:36;9.77;;;5.60;;
41687;SDS011;27371;42.686;23.362;2023-09-30T04:06:04;14.23;;;5.10;;
41687;SDS011;27371;42.686;23.362;2023-09-30T04:08:30;9.68;;;4.78;;
41687;SDS011;27371;42.686;23.362;2023-09-30T04:10:58;13.23;;;5.00;;
41687;SDS011;27371;42.686;23.362;2023-09-30T04:13:25;15.88;;;5.45;;
41687;SDS011;27371;42.686;23.362;2023-09-30T04:15:51;10.73;;;4.85;;
41687;SDS011;27371;42.686;23.362;2023-09-30T04:18:16;14.82;;;4.57;;
41687;SDS011;27371;42.686;23.362;2023-09-30T04:20:45;13.88;;;4.43;;
41687;SDS011;27371;42.686;23.362;2023-09-30T04:23:11;10.82;;;4.63;;
41687;SDS011;27371;42.686;23.362;2023-09-30T04:25:38;12.23;;;4.50;;
41687;SDS011;27371;42.686;23.362;2023-09-30T04:28:03;7.65;;;4.65;;
41687;SDS011;27371;42.686;23.362;2023-09-30T04:30:29;9.73;;;3.97;;
41687;SDS011;27371;42.686;23.362;2023-09-30T04:32:57;9.80;;;4.47;;
41687;SDS011;27371;42.686;23.362;2023-09-30T04:35:23;12.57;;;4.82;;
41687;SDS011;27371;42.686;23.362;2023-09-30T04:37:50;10.88;;;4.32;;
41687;SDS011;27371;42.686;23.362;2023-09-30T04:40:16;12.02;;;4.75;;
41687;SDS011;27371;42.686;23.362;2023-09-30T04:42:45;17.00;;;4.40;;
41687;SDS011;27371;42.686;23.362;2023-09-30T04:45:12;6.32;;;3.92;;
41687;SDS011;27371;42.686;23.362;2023-09-30T04:47:38;10.35;;;3.95;;
41687;SDS011;27371;42.686;23.362;2023-09-30T04:50:07;12.02;;;4.90;;
41687;SDS011;27371;42.686;23.362;2023-09-30T04:52:34;9.43;;;4.18;;
41687;SDS011;27371;42.686;23.362;2023-09-30T04:55:00;8.23;;;4.03;;
41687;SDS011;27371;42.686;23.362;2023-09-30T04:57:26;9.05;;;4.78;;
41687;SDS011;27371;42.686;23.362;2023-09-30T04:59:52;7.07;;;4.20;;
41687;SDS011;27371;42.686;23.362;2023-09-30T05:02:17;10.57;;;4.53;;
41687;SDS011;27371;42.686;23.362;2023-09-30T05:04:43;9.48;;;5.40;;
41687;SDS011;27371;42.686;23.362;2023-09-30T05:07:08;8.80;;;4.60;;
41687;SDS011;27371;42.686;23.362;2023-09-30T05:09:34;12.27;;;5.72;;
41687;SDS011;27371;42.686;23.362;2023-09-30T05:11:59;9.23;;;5.03;;
41687;SDS011;27371;42.686;23.362;2023-09-30T05:14:25;12.50;;;5.03;;
41687;SDS011;27371;42.686;23.362;2023-09-30T05:16:50;12.00;;;5.03;;
41687;SDS011;27371;42.686;23.362;2023-09-30T05:19:16;13.48;;;4.60;;
41687;SDS011;27371;42.686;23.362;2023-09-30T05:21:41;7.80;;;4.30;;
41687;SDS011;27371;42.686;23.362;2023-09-30T05:24:08;10.18;;;4.78;;
41687;SDS011;27371;42.686;23.362;2023-09-30T05:26:33;11.23;;;5.18;;
41687;SDS011;27371;42.686;23.362;2023-09-30T05:28:59;13.52;;;5.10;;
41687;SDS011;27371;42.686;23.362;2023-09-30T05:31:25;23.30;;;6.68;;
41687;SDS011;27371;42.686;23.362;2023-09-30T05:33:50;16.77;;;5.80;;
41687;SDS011;27371;42.686;23.362;2023-09-30T05:36:15;13.05;;;6.05;;
41687;SDS011;27371;42.686;23.362;2023-09-30T05:38:41;13.32;;;6.53;;
41687;SDS011;27371;42.686;23.362;2023-09-30T05:41:07;13.10;;;7.57;;
41687;SDS011;27371;42.686;23.362;2023-09-30T05:43:33;15.27;;;7.18;;
41687;SDS011;27371;42.686;23.362;2023-09-30T05:45:58;12.00;;;6.43;;
41687;SDS011;27371;42.686;23.362;2023-09-30T05:48:24;10.80;;;6.43;;
41687;SDS011;27371;42.686;23.362;2023-09-30T05:50:49;15.80;;;5.15;;
41687;SDS011;27371;42.686;23.362;2023-09-30T05:53:15;11.63;;;5.18;;
41687;SDS011;27371;42.686;23.362;2023-09-30T05:55:41;13.32;;;5.50;;
41687;SDS011;27371;42.686;23.362;2023-09-30T05:58:08;15.90;;;5.82;;
41687;SDS011;27371;42.686;23.362;2023-09-30T06:00:43;14.40;;;6.15;;
41687;SDS011;27371;42.686;23.362;2023-09-30T06:03:08;10.23;;;5.25;;
41687;SDS011;27371;42.686;23.362;2023-09-30T06:05:39;12.60;;;6.13;;
41687;SDS011;27371;42.686;23.362;2023-09-30T06:08:07;12.07;;;5.80;;
41687;SDS011;27371;42.686;23.362;2023-09-30T06:10:35;16.23;;;5.70;;
41687;SDS011;27371;42.686;23.362;2023-09-30T06:13:03;8.70;;;5.07;;
41687;SDS011;27371;42.686;23.362;2023-09-30T06:15:29;10.60;;;5.60;;
41687;SDS011;27371;42.686;23.362;2023-09-30T06:17:57;16.35;;;5.57;;
41687;SDS011;27371;42.686;23.362;2023-09-30T06:20:25;10.93;;;5.20;;
41687;SDS011;27371;42.686;23.362;2023-09-30T06:22:51;12.75;;;5.32;;
41687;SDS011;27371;42.686;23.362;2023-09-30T06:25:19;10.75;;;5.88;;
41687;SDS011;27371;42.686;23.362;2023-09-30T06:27:46;17.00;;;5.45;;
41687;SDS011;27371;42.686;23.362;2023-09-30T06:30:16;14.98;;;5.70;;
41687;SDS011;27371;42.686;23.362;2023-09-30T06:32:43;12.13;;;5.20;;
41687;SDS011;27371;42.686;23.362;2023-09-30T06:35:09;15.70;;;5.57;;
41687;SDS011;27371;42.686;23.362;2023-09-30T06:37:36;16.83;;;5.45;;
41687;SDS011;27371;42.686;23.362;2023-09-30T06:40:05;17.38;;;5.30;;
41687;SDS011;27371;42.686;23.362;2023-09-30T06:42:33;13.43;;;4.55;;
41687;SDS011;27371;42.686;23.362;2023-09-30T06:44:58;9.38;;;4.25;;
41687;SDS011;27371;42.686;23.362;2023-09-30T06:47:24;8.77;;;4.50;;
41687;SDS011;27371;42.686;23.362;2023-09-30T06:49:50;16.08;;;3.97;;
41687;SDS011;27371;42.686;23.362;2023-09-30T06:52:16;15.52;;;4.63;;
41687;SDS011;27371;42.686;23.362;2023-09-30T06:54:42;17.13;;;5.45;;
41687;SDS011;27371;42.686;23.362;2023-09-30T06:57:07;16.00;;;6.35;;
41687;SDS011;27371;42.686;23.362;2023-09-30T06:59:34;13.75;;;4.57;;
41687;SDS011;27371;42.686;23.362;2023-09-30T07:02:00;14.15;;;5.18;;
41687;SDS011;27371;42.686;23.362;2023-09-30T07:04:25;10.43;;;4.68;;
41687;SDS011;27371;42.686;23.362;2023-09-30T07:06:52;6.60;;;3.85;;
41687;SDS011;27371;42.686;23.362;2023-09-30T07:09:18;12.75;;;4.93;;
41687;SDS011;27371;42.686;23.362;2023-09-30T07:11:45;12.68;;;4.53;;
41687;SDS011;27371;42.686;23.362;2023-09-30T07:14:10;14.88;;;5.18;;
41687;SDS011;27371;42.686;23.362;2023-09-30T07:16:36;15.88;;;4.20;;
41687;SDS011;27371;42.686;23.362;2023-09-30T07:19:01;12.45;;;3.95;;
41687;SDS011;27371;42.686;23.362;2023-09-30T07:21:28;12.10;;;5.00;;
41687;SDS011;27371;42.686;23.362;2023-09-30T07:23:53;8.95;;;3.97;;
41687;SDS011;27371;42.686;23.362;2023-09-30T07:26:23;12.40;;;4.53;;
41687;SDS011;27371;42.686;23.362;2023-09-30T07:28:49;11.60;;;3.78;;
41687;SDS011;27371;42.686;23.362;2023-09-30T07:31:15;15.23;;;4.38;;
41687;SDS011;27371;42.686;23.362;2023-09-30T07:33:40;13.00;;;3.80;;
41687;SDS011;27371;42.686;23.362;2023-09-30T07:36:06;11.00;;;4.40;;
41687;SDS011;27371;42.686;23.362;2023-09-30T07:38:31;14.90;;;4.22;;
41687;SDS011;27371;42.686;23.362;2023-09-30T07:40:57;9.90;;;4.35;;
41687;SDS011;27371;42.686;23.362;2023-09-30T07:43:22;15.05;;;4.32;;
41687;SDS011;27371;42.686;23.362;2023-09-30T07:45:48;11.90;;;3.90;;
41687;SDS011;27371;42.686;23.362;2023-09-30T07:48:13;9.57;;;4.88;;
41687;SDS011;27371;42.686;23.362;2023-09-30T07:50:39;15.77;;;5.82;;
41687;SDS011;27371;42.686;23.362;2023-09-30T07:53:06;8.45;;;4.65;;
41687;SDS011;27371;42.686;23.362;2023-09-30T07:55:31;15.93;;;4.43;;
41687;SDS011;27371;42.686;23.362;2023-09-30T07:57:56;10.65;;;3.83;;
41687;SDS011;27371;42.686;23.362;2023-09-30T08:00:24;13.60;;;3.85;;
41687;SDS011;27371;42.686;23.362;2023-09-30T08:02:50;9.98;;;4.32;;
41687;SDS011;27371;42.686;23.362;2023-09-30T08:05:16;8.93;;;4.05;;
41687;SDS011;27371;42.686;23.362;2023-09-30T08:07:42;8.95;;;4.30;;
41687;SDS011;27371;42.686;23.362;2023-09-30T08:10:07;12.65;;;4.63;;
41687;SDS011;27371;42.686;23.362;2023-09-30T08:12:38;11.82;;;3.75;;
41687;SDS011;27371;42.686;23.362;2023-09-30T08:15:03;12.70;;;4.03;;
41687;SDS011;27371;42.686;23.362;2023-09-30T08:17:31;12.57;;;3.58;;
41687;SDS011;27371;42.686;23.362;2023-09-30T08:19:57;13.50;;;4.10;;
41687;SDS011;27371;42.686;23.362;2023-09-30T08:22:22;14.75;;;3.90;;
41687;SDS011;27371;42.686;23.362;2023-09-30T08:24:52;8.25;;;3.17;;
41687;SDS011;27371;42.686;23.362;2023-09-30T08:27:18;8.85;;;3.95;;
41687;SDS011;27371;42.686;23.362;2023-09-30T08:29:43;10.93;;;3.97;;
41687;SDS011;27371;42.686;23.362;2023-09-30T08:32:09;15.60;;;3.63;;
41687;SDS011;27371;42.686;23.362;2023-09-30T08:34:35;8.32;;;4.07;;
41687;SDS011;27371;42.686;23.362;2023-09-30T08:37:00;8.82;;;4.45;;
41687;SDS011;27371;42.686;23.362;2023-09-30T08:39:27;10.00;;;4.05;;
41687;SDS011;27371;42.686;23.362;2023-09-30T08:41:52;13.07;;;3.88;;
41687;SDS011;27371;42.686;23.362;2023-09-30T08:44:20;12.90;;;4.38;;
41687;SDS011;27371;42.686;23.362;2023-09-30T08:46:46;13.88;;;4.13;;
41687;SDS011;27371;42.686;23.362;2023-09-30T08:49:12;16.92;;;4.72;;
41687;SDS011;27371;42.686;23.362;2023-09-30T08:51:40;16.60;;;4.75;;
41687;SDS011;27371;42.686;23.362;2023-09-30T08:54:05;12.40;;;4.72;;
41687;SDS011;27371;42.686;23.362;2023-09-30T08:56:32;11.93;;;4.50;;
41687;SDS011;27371;42.686;23.362;2023-09-30T08:58:58;15.25;;;5.20;;
41687;SDS011;27371;42.686;23.362;2023-09-30T09:01:29;15.18;;;5.65;;
41687;SDS011;27371;42.686;23.362;2023-09-30T09:03:56;7.13;;;4.65;;
41687;SDS011;27371;42.686;23.362;2023-09-30T09:06:22;9.65;;;4.82;;
41687;SDS011;27371;42.686;23.362;2023-09-30T09:08:50;18.30;;;6.40;;
41687;SDS011;27371;42.686;23.362;2023-09-30T09:11:16;15.90;;;5.65;;
41687;SDS011;27371;42.686;23.362;2023-09-30T09:16:18;11.43;;;4.82;;
41687;SDS011;27371;42.686;23.362;2023-09-30T09:18:44;19.92;;;10.23;;
41687;SDS011;27371;42.686;23.362;2023-09-30T09:21:13;8.60;;;5.10;;
41687;SDS011;27371;42.686;23.362;2023-09-30T09:23:44;15.52;;;5.05;;
41687;SDS011;27371;42.686;23.362;2023-09-30T09:26:11;14.63;;;4.57;;
41687;SDS011;27371;42.686;23.362;2023-09-30T09:28:40;12.63;;;5.18;;
41687;SDS011;27371;42.686;23.362;2023-09-30T09:31:19;12.40;;;4.55;;
41687;SDS011;27371;42.686;23.362;2023-09-30T09:33:49;10.10;;;4.05;;
41687;SDS011;27371;42.686;23.362;2023-09-30T09:36:15;12.70;;;4.53;;
41687;SDS011;27371;42.686;23.362;2023-09-30T09:38:45;13.43;;;4.20;;
41687;SDS011;27371;42.686;23.362;2023-09-30T09:41:11;15.77;;;4.10;;
41687;SDS011;27371;42.686;23.362;2023-09-30T09:43:37;9.35;;;4.78;;
41687;SDS011;27371;42.686;23.362;2023-09-30T09:46:04;12.88;;;3.88;;
41687;SDS011;27371;42.686;23.362;2023-09-30T09:48:34;10.30;;;3.83;;
41687;SDS011;27371;42.686;23.362;2023-09-30T09:51:06;8.45;;;3.80;;
41687;SDS011;27371;42.686;23.362;2023-09-30T09:53:34;7.70;;;3.40;;
41687;SDS011;27371;42.686;23.362;2023-09-30T09:56:04;7.47;;;3.78;;
41687;SDS011;27371;42.686;23.362;2023-09-30T09:58:34;13.50;;;3.97;;
41687;SDS011;27371;42.686;23.362;2023-09-30T10:01:04;11.10;;;2.90;;
41687;SDS011;27371;42.686;23.362;2023-09-30T10:03:31;14.98;;;3.10;;
41687;SDS011;27371;42.686;23.362;2023-09-30T10:05:57;12.15;;;3.20;;
41687;SDS011;27371;42.686;23.362;2023-09-30T10:08:35;14.43;;;3.67;;
41687;SDS011;27371;42.686;23.362;2023-09-30T10:11:04;8.13;;;3.08;;
41687;SDS011;27371;42.686;23.362;2023-09-30T10:19:13;9.60;;;3.17;;
41687;SDS011;27371;42.686;23.362;2023-09-30T10:21:41;10.70;;;3.75;;
41687;SDS011;27371;42.686;23.362;2023-09-30T10:24:51;5.65;;;2.70;;
41687;SDS011;27371;42.686;23.362;2023-09-30T10:30:05;5.15;;;2.55;;
41687;SDS011;27371;42.686;23.362;2023-09-30T10:35:19;5.65;;;2.25;;
41687;SDS011;27371;42.686;23.362;2023-09-30T10:37:45;12.45;;;2.88;;
41687;SDS011;27371;42.686;23.362;2023-09-30T10:40:27;7.78;;;2.45;;
41687;SDS011;27371;42.686;23.362;2023-09-30T10:42:53;9.45;;;2.45;;
41687;SDS011;27371;42.686;23.362;2023-09-30T10:50:54;7.55;;;2.70;;
41687;SDS011;27371;42.686;23.362;2023-09-30T10:53:58;7.97;;;2.50;;
41687;SDS011;27371;42.686;23.362;2023-09-30T10:56:32;10.77;;;3.08;;
41687;SDS011;27371;42.686;23.362;2023-09-30T10:58:57;6.65;;;2.35;;
41687;SDS011;27371;42.686;23.362;2023-09-30T11:01:24;10.50;;;2.78;;
41687;SDS011;27371;42.686;23.362;2023-09-30T11:03:50;8.32;;;3.03;;
41687;SDS011;27371;42.686;23.362;2023-09-30T11:06:23;7.45;;;2.92;;
41687;SDS011;27371;42.686;23.362;2023-09-30T11:08:58;8.23;;;2.90;;
41687;SDS011;27371;42.686;23.362;2023-09-30T11:13:59;8.40;;;2.72;;
41687;SDS011;27371;42.686;23.362;2023-09-30T11:16:24;6.50;;;2.95;;
41687;SDS011;27371;42.686;23.362;2023-09-30T11:18:53;9.05;;;2.60;;
41687;SDS011;27371;42.686;23.362;2023-09-30T11:21:19;10.73;;;2.72;;
41687;SDS011;27371;42.686;23.362;2023-09-30T11:23:45;10.98;;;3.05;;
41687;SDS011;27371;42.686;23.362;2023-09-30T11:26:10;9.05;;;3.28;;
41687;SDS011;27371;42.686;23.362;2023-09-30T11:28:39;7.10;;;2.97;;
41687;SDS011;27371;42.686;23.362;2023-09-30T11:31:10;10.75;;;2.83;;
41687;SDS011;27371;42.686;23.362;2023-09-30T11:33:48;10.73;;;2.83;;
41687;SDS011;27371;42.686;23.362;2023-09-30T11:36:17;10.95;;;3.40;;
41687;SDS011;27371;42.686;23.362;2023-09-30T11:38:49;6.95;;;3.22;;
41687;SDS011;27371;42.686;23.362;2023-09-30T11:41:20;8.48;;;2.88;;
41687;SDS011;27371;42.686;23.362;2023-09-30T11:46:30;6.13;;;2.75;;
41687;SDS011;27371;42.686;23.362;2023-09-30T11:49:04;12.02;;;4.28;;
41687;SDS011;27371;42.686;23.362;2023-09-30T11:51:43;9.10;;;4.00;;
41687;SDS011;27371;42.686;23.362;2023-09-30T11:54:13;7.07;;;3.42;;
41687;SDS011;27371;42.686;23.362;2023-09-30T11:56:39;9.80;;;2.95;;
41687;SDS011;27371;42.686;23.362;2023-09-30T11:59:04;10.57;;;3.22;;
41687;SDS011;27371;42.686;23.362;2023-09-30T12:01:30;8.77;;;3.40;;
41687;SDS011;27371;42.686;23.362;2023-09-30T12:03:57;6.55;;;3.55;;
41687;SDS011;27371;42.686;23.362;2023-09-30T12:06:26;9.77;;;3.25;;
41687;SDS011;27371;42.686;23.362;2023-09-30T12:08:51;8.60;;;3.17;;
41687;SDS011;27371;42.686;23.362;2023-09-30T12:11:21;9.10;;;3.47;;
41687;SDS011;27371;42.686;23.362;2023-09-30T12:13:49;10.38;;;3.55;;
41687;SDS011;27371;42.686;23.362;2023-09-30T12:16:18;9.23;;;3.35;;
41687;SDS011;27371;42.686;23.362;2023-09-30T12:18:44;9.35;;;3.58;;
41687;SDS011;27371;42.686;23.362;2023-09-30T12:21:11;10.85;;;3.10;;
41687;SDS011;27371;42.686;23.362;2023-09-30T12:23:38;8.35;;;2.88;;
41687;SDS011;27371;42.686;23.362;2023-09-30T12:26:04;12.20;;;2.78;;
41687;SDS011;27371;42.686;23.362;2023-09-30T12:28:31;10.20;;;3.17;;
41687;SDS011;27371;42.686;23.362;2023-09-30T12:30:57;7.22;;;3.38;;
41687;SDS011;27371;42.686;23.362;2023-09-30T12:33:23;8.48;;;2.80;;
41687;SDS011;27371;42.686;23.362;2023-09-30T12:35:49;7.63;;;3.15;;
41687;SDS011;27371;42.686;23.362;2023-09-30T12:38:14;12.88;;;3.35;;
41687;SDS011;27371;42.686;23.362;2023-09-30T12:40:41;11.68;;;2.88;;
41687;SDS011;27371;42.686;23.362;2023-09-30T12:43:08;13.80;;;3.38;;
41687;SDS011;27371;42.686;23.362;2023-09-30T12:45:34;10.32;;;4.07;;
41687;SDS011;27371;42.686;23.362;2023-09-30T12:47:59;11.02;;;3.60;;
41687;SDS011;27371;42.686;23.362;2023-09-30T12:50:25;8.98;;;3.28;;
41687;SDS011;27371;42.686;23.362;2023-09-30T12:52:50;14.43;;;3.25;;
41687;SDS011;27371;42.686;23.362;2023-09-30T12:55:15;9.10;;;2.92;;
41687;SDS011;27371;42.686;23.362;2023-09-30T12:57:41;13.55;;;3.35;;
41687;SDS011;27371;42.686;23.362;2023-09-30T13:00:06;13.73;;;3.70;;
41687;SDS011;27371;42.686;23.362;2023-09-30T13:02:34;5.68;;;3.17;;
41687;SDS011;27371;42.686;23.362;2023-09-30T13:05:02;9.48;;;3.58;;
41687;SDS011;27371;42.686;23.362;2023-09-30T13:07:30;9.00;;;3.08;;
41687;SDS011;27371;42.686;23.362;2023-09-30T13:09:55;10.68;;;2.95;;
41687;SDS011;27371;42.686;23.362;2023-09-30T13:12:22;6.47;;;3.35;;
41687;SDS011;27371;42.686;23.362;2023-09-30T13:14:47;7.80;;;2.72;;
41687;SDS011;27371;42.686;23.362;2023-09-30T13:17:12;9.68;;;3.92;;
41687;SDS011;27371;42.686;23.362;2023-09-30T13:19:39;7.65;;;3.30;;
41687;SDS011;27371;42.686;23.362;2023-09-30T13:22:05;8.23;;;3.20;;
41687;SDS011;27371;42.686;23.362;2023-09-30T13:24:30;8.32;;;3.53;;
41687;SDS011;27371;42.686;23.362;2023-09-30T13:26:56;8.90;;;4.10;;
41687;SDS011;27371;42.686;23.362;2023-09-30T13:29:21;16.92;;;3.63;;
41687;SDS011;27371;42.686;23.362;2023-09-30T13:31:47;8.93;;;3.33;;
41687;SDS011;27371;42.686;23.362;2023-09-30T13:34:12;8.93;;;3.45;;
41687;SDS011;27371;42.686;23.362;2023-09-30T13:36:38;7.95;;;3.55;;
41687;SDS011;27371;42.686;23.362;2023-09-30T13:39:03;9.52;;;3.30;;
41687;SDS011;27371;42.686;23.362;2023-09-30T13:41:35;7.40;;;3.83;;
41687;SDS011;27371;42.686;23.362;2023-09-30T13:44:01;7.22;;;3.10;;
41687;SDS011;27371;42.686;23.362;2023-09-30T13:46:26;11.02;;;3.85;;
41687;SDS011;27371;42.686;23.362;2023-09-30T13:48:53;10.73;;;3.95;;
41687;SDS011;27371;42.686;23.362;2023-09-30T13:51:18;11.45;;;3.83;;
41687;SDS011;27371;42.686;23.362;2023-09-30T13:53:44;7.75;;;3.78;;
41687;SDS011;27371;42.686;23.362;2023-09-30T13:56:09;10.15;;;3.60;;
41687;SDS011;27371;42.686;23.362;2023-09-30T13:58:35;8.27;;;3.70;;
41687;SDS011;27371;42.686;23.362;2023-09-30T14:01:02;13.23;;;4.00;;
41687;SDS011;27371;42.686;23.362;2023-09-30T14:03:28;14.80;;;3.15;;
41687;SDS011;27371;42.686;23.362;2023-09-30T14:05:53;10.88;;;3.35;;
41687;SDS011;27371;42.686;23.362;2023-09-30T14:08:19;6.72;;;3.40;;
41687;SDS011;27371;42.686;23.362;2023-09-30T14:10:44;8.25;;;2.88;;
41687;SDS011;27371;42.686;23.362;2023-09-30T14:13:10;8.50;;;2.60;;
41687;SDS011;27371;42.686;23.362;2023-09-30T14:15:36;5.90;;;3.22;;
41687;SDS011;27371;42.686;23.362;2023-09-30T14:18:03;9.70;;;3.40;;
41687;SDS011;27371;42.686;23.362;2023-09-30T14:20:28;11.27;;;3.20;;
41687;SDS011;27371;42.686;23.362;2023-09-30T14:22:54;6.80;;;2.80;;
41687;SDS011;27371;42.686;23.362;2023-09-30T14:25:22;8.02;;;3.22;;
41687;SDS011;27371;42.686;23.362;2023-09-30T14:27:48;11.73;;;2.92;;
41687;SDS011;27371;42.686;23.362;2023-09-30T14:30:14;8.90;;;3.17;;
41687;SDS011;27371;42.686;23.362;2023-09-30T14:32:40;9.75;;;3.08;;
41687;SDS011;27371;42.686;23.362;2023-09-30T14:35:06;9.02;;;2.88;;
41687;SDS011;27371;42.686;23.362;2023-09-30T14:37:34;7.00;;;2.80;;
41687;SDS011;27371;42.686;23.362;2023-09-30T14:39:59;6.25;;;2.88;;
41687;SDS011;27371;42.686;23.362;2023-09-30T14:42:25;11.63;;;3.10;;
41687;SDS011;27371;42.686;23.362;2023-09-30T14:44:50;9.10;;;3.30;;
41687;SDS011;27371;42.686;23.362;2023-09-30T14:47:16;12.63;;;2.80;;
41687;SDS011;27371;42.686;23.362;2023-09-30T14:49:42;8.68;;;3.15;;
41687;SDS011;27371;42.686;23.362;2023-09-30T14:52:07;5.25;;;2.97;;
41687;SDS011;27371;42.686;23.362;2023-09-30T14:54:34;6.55;;;2.55;;
41687;SDS011;27371;42.686;23.362;2023-09-30T14:57:00;11.13;;;3.33;;